| time (UTC) | temp F | wind direction | speed MPH | gust MPH | rain 1hr in | rain 24hr in | rain mn in | humidity % | barometer mb |
| 20260504202422 | 74 | 203 | 0.0 | 11.0 | 0.00 | 0.00 | 0.00 | 49 | 1037.2 |
| 20260504201921 | 73 | 160 | 1.0 | 11.0 | 0.00 | 0.00 | 0.00 | 50 | 1037.1 |
| 20260504201420 | 73 | 142 | 1.0 | 11.0 | 0.00 | 0.00 | 0.00 | 50 | 1037.1 |
| 20260504200919 | 73 | 289 | 0.0 | 11.0 | 0.00 | 0.00 | 0.00 | 51 | 1037.3 |
| 20260504195904 | 74 | 234 | 1.0 | 11.0 | 0.00 | 0.00 | 0.00 | 49 | 1037.1 |
| 20260504195404 | 75 | 217 | 0.0 | 11.0 | 0.00 | 0.00 | 0.00 | 50 | 1037.5 |
| 20260504194904 | 74 | 217 | 0.0 | 11.0 | 0.00 | 0.00 | 0.00 | 50 | 1037.5 |
| 20260504194404 | 74 | 223 | 0.0 | 11.0 | 0.00 | 0.00 | 0.00 | 49 | 1037.2 |
| 20260504193903 | 74 | 206 | 0.0 | 11.0 | 0.00 | 0.00 | 0.00 | 51 | 1036.8 |
| 20260504193403 | 74 | 173 | 0.0 | 11.0 | 0.00 | 0.00 | 0.00 | 55 | 1037.1 |
| 20260504192348 | 72 | 92 | 0.0 | 11.0 | 0.00 | 0.00 | 0.00 | 55 | 1037.0 |
| 20260504191848 | 71 | 85 | 0.0 | 11.0 | 0.00 | 0.00 | 0.00 | 57 | 1036.8 |
| 20260504191347 | 71 | 84 | 0.0 | 11.0 | 0.00 | 0.00 | 0.00 | 55 | 1037.0 |
| 20260504190846 | 70 | 80 | 0.0 | 11.0 | 0.00 | 0.00 | 0.00 | 59 | 1037.0 |
| 20260504190346 | 70 | 80 | 0.0 | 11.0 | 0.00 | 0.00 | 0.00 | 58 | 1037.3 |
| 20260504185331 | 69 | 171 | 0.0 | 11.0 | 0.00 | 0.00 | 0.00 | 59 | 1036.8 |
| 20260504184830 | 69 | 174 | 0.0 | 11.0 | 0.00 | 0.00 | 0.00 | 59 | 1037.2 |
| 20260504184330 | 69 | 187 | 0.0 | 11.0 | 0.00 | 0.00 | 0.00 | 58 | 1037.1 |
| 20260504183830 | 69 | 192 | 0.0 | 11.0 | 0.00 | 0.00 | 0.00 | 60 | 1037.5 |
| 20260504183329 | 69 | 192 | 0.0 | 11.0 | 0.00 | 0.00 | 0.00 | 59 | 1037.1 |
| 20260504181757 | 69 | 192 | 0.0 | 11.0 | 0.00 | 0.00 | 0.00 | 60 | 1037.0 |
| 20260504181256 | 70 | 192 | 0.0 | 11.0 | 0.00 | 0.00 | 0.00 | 60 | 1037.0 |
| 20260504180755 | 70 | 192 | 0.0 | 11.0 | 0.00 | 0.00 | 0.00 | 59 | 1037.2 |
| 20260504180254 | 71 | 192 | 0.0 | 11.0 | 0.00 | 0.00 | 0.00 | 59 | 1037.2 |
| 20260504175753 | 71 | 192 | 0.0 | 11.0 | 0.00 | 0.00 | 0.00 | 58 | 1037.2 |
| 20260504175252 | 71 | 192 | 0.0 | 11.0 | 0.00 | 0.00 | 0.00 | 56 | 1037.4 |
| 20260504174751 | 71 | 192 | 0.0 | 11.0 | 0.00 | 0.00 | 0.00 | 57 | 1037.4 |
| 20260504173218 | 72 | 192 | 0.0 | 11.0 | 0.00 | 0.00 | 0.00 | 55 | 1037.1 |
| 20260504172717 | 72 | 192 | 0.0 | 11.0 | 0.00 | 0.00 | 0.00 | 56 | 1037.2 |
| 20260504172216 | 72 | 192 | 0.0 | 11.0 | 0.00 | 0.00 | 0.00 | 57 | 1037.2 |
| 20260504171159 | 72 | 192 | 0.0 | 11.0 | 0.00 | 0.00 | 0.00 | 57 | 1037.1 |
| 20260504170658 | 72 | 192 | 0.0 | 11.0 | 0.00 | 0.00 | 0.00 | 57 | 1037.2 |
| 20260504170158 | 72 | 192 | 0.0 | 11.0 | 0.00 | 0.00 | 0.00 | 57 | 1037.0 |
| 20260504160135 | 68 | 191 | 0.0 | 11.0 | 0.00 | 0.00 | 0.00 | 61 | 1037.0 |
| 20260504150557 | 62 | 191 | 0.0 | 11.0 | 0.00 | 0.00 | 0.00 | 73 | 1036.7 |
| 20260504140955 | 56 | 268 | 0.0 | 11.0 | 0.00 | 0.00 | 0.00 | 80 | 1036.2 |
| 20260504140454 | 56 | 268 | 0.0 | 11.0 | 0.00 | 0.00 | 0.00 | 81 | 1036.2 |
| 20260504130432 | 56 | 268 | 0.0 | 11.0 | 0.00 | 0.00 | 0.00 | 77 | 1035.9 |
| 20260504110303 | 57 | 237 | 0.0 | 11.0 | 0.00 | 0.00 | 0.00 | 69 | 1035.7 |
| 20260504100225 | 59 | 237 | 0.0 | 11.0 | 0.00 | 0.00 | 0.00 | 65 | 1035.6 |
| 20260504081645 | 63 | 237 | 0.0 | 11.0 | 0.00 | 0.00 | 0.00 | 58 | 1035.7 |
| 20260504081145 | 63 | 237 | 0.0 | 11.0 | 0.00 | 0.00 | 0.00 | 57 | 1035.5 |
| 20260504080645 | 63 | 237 | 0.0 | 11.0 | 0.00 | 0.00 | 0.00 | 57 | 1035.9 |
| 20260504080145 | 63 | 243 | 0.0 | 11.0 | 0.00 | 0.00 | 0.00 | 57 | 1035.8 |
| 20260504070129 | 63 | 257 | 0.0 | 11.0 | 0.00 | 0.00 | 0.00 | 55 | 1035.7 |
| 20260504050534 | 64 | 257 | 0.0 | 11.0 | 0.00 | 0.00 | 0.00 | 55 | 1035.8 |
| 20260504045533 | 64 | 257 | 0.0 | 11.0 | 0.00 | 0.00 | 0.00 | 55 | 1036.1 |
| 20260504045033 | 64 | 257 | 0.0 | 11.0 | 0.00 | 0.00 | 0.00 | 55 | 1036.1 |
| 20260504044532 | 65 | 257 | 0.0 | 11.0 | 0.00 | 0.00 | 0.00 | 55 | 1036.1 |
| 20260504044031 | 65 | 257 | 0.0 | 11.0 | 0.00 | 0.00 | 0.00 | 55 | 1036.1 |
| 20260504043531 | 65 | 257 | 0.0 | 11.0 | 0.00 | 0.00 | 0.00 | 55 | 1036.2 |
| 20260504042515 | 65 | 257 | 0.0 | 11.0 | 0.00 | 0.00 | 0.00 | 55 | 1036.0 |
| 20260504042014 | 65 | 257 | 0.0 | 11.0 | 0.00 | 0.00 | 0.00 | 54 | 1035.7 |
| 20260504041514 | 65 | 257 | 0.0 | 11.0 | 0.00 | 0.00 | 0.00 | 54 | 1035.9 |
| 20260504040457 | 66 | 257 | 0.0 | 11.0 | 0.00 | 0.00 | 0.00 | 51 | 1036.1 |
| 20260504035957 | 66 | 257 | 0.0 | 11.0 | 0.00 | 0.00 | 0.00 | 51 | 1036.0 |
| 20260504035456 | 66 | 257 | 0.0 | 11.0 | 0.00 | 0.00 | 0.00 | 51 | 1035.6 |
| 20260504034955 | 66 | 257 | 0.0 | 11.0 | 0.00 | 0.00 | 0.00 | 51 | 1036.0 |
| 20260504034455 | 66 | 257 | 0.0 | 11.0 | 0.00 | 0.00 | 0.00 | 52 | 1035.9 |
| 20260504033954 | 67 | 257 | 0.0 | 11.0 | 0.00 | 0.00 | 0.00 | 50 | 1035.8 |
| 20260504032423 | 67 | 257 | 0.0 | 11.0 | 0.00 | 0.00 | 0.00 | 49 | 1036.1 |
| 20260504031923 | 68 | 257 | 0.0 | 11.0 | 0.00 | 0.00 | 0.00 | 48 | 1035.8 |
| 20260504031423 | 68 | 257 | 0.0 | 11.0 | 0.00 | 0.00 | 0.00 | 48 | 1036.0 |
| 20260504030923 | 68 | 257 | 0.0 | 11.0 | 0.00 | 0.00 | 0.00 | 48 | 1036.1 |
| 20260504030422 | 68 | 257 | 0.0 | 11.0 | 0.00 | 0.00 | 0.00 | 48 | 1036.0 |
| 20260504025922 | 68 | 257 | 0.0 | 11.0 | 0.00 | 0.00 | 0.00 | 49 | 1035.9 |
| 20260504025421 | 68 | 257 | 0.0 | 11.0 | 0.00 | 0.00 | 0.00 | 48 | 1036.0 |
| 20260504024921 | 69 | 257 | 0.0 | 11.0 | 0.00 | 0.00 | 0.00 | 49 | 1036.0 |
| 20260504024420 | 69 | 257 | 0.0 | 11.0 | 0.00 | 0.00 | 0.00 | 50 | 1035.7 |
| 20260504023919 | 69 | 257 | 0.0 | 11.0 | 0.00 | 0.00 | 0.00 | 50 | 1035.9 |
| 20260504023418 | 69 | 257 | 0.0 | 11.0 | 0.00 | 0.00 | 0.00 | 48 | 1035.9 |
| 20260504022918 | 70 | 257 | 0.0 | 11.0 | 0.00 | 0.00 | 0.00 | 49 | 1035.9 |
| 20260504022417 | 70 | 257 | 0.0 | 11.0 | 0.00 | 0.00 | 0.00 | 51 | 1036.1 |
| 20260504021917 | 70 | 257 | 0.0 | 11.0 | 0.00 | 0.00 | 0.00 | 50 | 1036.1 |
| 20260504021416 | 70 | 257 | 0.0 | 11.0 | 0.00 | 0.00 | 0.00 | 50 | 1036.3 |
| 20260504020916 | 70 | 257 | 0.0 | 11.0 | 0.00 | 0.00 | 0.00 | 49 | 1036.6 |
| 20260504020415 | 71 | 257 | 0.0 | 11.0 | 0.00 | 0.00 | 0.00 | 48 | 1036.2 |
| 20260504015915 | 71 | 177 | 0.0 | 11.0 | 0.00 | 0.00 | 0.00 | 46 | 1036.2 |
| 20260504014859 | 71 | 177 | 0.0 | 11.0 | 0.00 | 0.00 | 0.00 | 47 | 1036.2 |
| 20260504014359 | 71 | 177 | 0.0 | 11.0 | 0.00 | 0.00 | 0.00 | 47 | 1036.5 |
| 20260504013859 | 71 | 177 | 0.0 | 11.0 | 0.00 | 0.00 | 0.00 | 45 | 1036.5 |
| 20260504013359 | 71 | 177 | 0.0 | 11.0 | 0.00 | 0.00 | 0.00 | 48 | 1036.5 |
| 20260504012859 | 71 | 166 | 0.0 | 11.0 | 0.00 | 0.00 | 0.00 | 47 | 1036.7 |
| 20260504012358 | 71 | 166 | 0.0 | 11.0 | 0.00 | 0.00 | 0.00 | 50 | 1036.7 |
| 20260504011858 | 71 | 166 | 0.0 | 11.0 | 0.00 | 0.00 | 0.00 | 48 | 1036.5 |
| 20260504010843 | 71 | 166 | 0.0 | 11.0 | 0.00 | 0.00 | 0.00 | 46 | 1036.7 |
| 20260504010342 | 71 | 166 | 0.0 | 11.0 | 0.00 | 0.00 | 0.00 | 46 | 1036.5 |
| 20260504005326 | 71 | 166 | 0.0 | 11.0 | 0.00 | 0.00 | 0.00 | 49 | 1036.7 |
| 20260504004310 | 71 | 166 | 0.0 | 11.0 | 0.00 | 0.00 | 0.00 | 50 | 1036.7 |
| 20260504003810 | 71 | 166 | 0.0 | 11.0 | 0.00 | 0.00 | 0.00 | 49 | 1036.8 |
| 20260504002755 | 71 | 166 | 0.0 | 11.0 | 0.00 | 0.00 | 0.00 | 47 | 1036.8 |
| 20260504002254 | 71 | 166 | 0.0 | 11.0 | 0.00 | 0.00 | 0.00 | 46 | 1037.1 |
| 20260504001238 | 71 | 166 | 0.0 | 11.0 | 0.00 | 0.00 | 0.00 | 48 | 1037.0 |
| 20260504000738 | 70 | 166 | 0.0 | 11.0 | 0.00 | 0.00 | 0.00 | 51 | 1037.3 |
| 20260504000241 | 71 | 166 | 0.0 | 11.0 | 0.00 | 0.00 | 0.00 | 49 | 1037.6 |
| 20260503235738 | 71 | 166 | 0.0 | 11.0 | 0.00 | 0.00 | 0.00 | 52 | 1037.2 |
| 20260503235237 | 71 | 166 | 0.0 | 11.0 | 0.00 | 0.00 | 0.00 | 52 | 1037.6 |
| 20260503234737 | 71 | 166 | 0.0 | 11.0 | 0.00 | 0.00 | 0.00 | 52 | 1037.4 |
| 20260503234237 | 71 | 166 | 0.0 | 11.0 | 0.00 | 0.00 | 0.00 | 51 | 1037.6 |
| 20260503233222 | 72 | 163 | 0.0 | 11.0 | 0.00 | 0.00 | 0.00 | 50 | 1037.7 |
| 20260503232722 | 73 | 163 | 0.0 | 11.0 | 0.00 | 0.00 | 0.00 | 49 | 1037.4 |
| 20260503232222 | 73 | 162 | 0.0 | 11.0 | 0.00 | 0.00 | 0.00 | 48 | 1037.8 |
| 20260503231722 | 73 | 189 | 0.0 | 11.0 | 0.00 | 0.00 | 0.00 | 48 | 1037.6 |
| 20260503231223 | 74 | 197 | 0.0 | 11.0 | 0.00 | 0.00 | 0.00 | 47 | 1038.1 |
| 20260503230722 | 74 | 172 | 0.0 | 11.0 | 0.00 | 0.00 | 0.00 | 46 | 1037.8 |
| 20260503230221 | 74 | 175 | 0.0 | 11.0 | 0.00 | 0.00 | 0.00 | 45 | 1037.8 |
| 20260503225720 | 74 | 174 | 0.0 | 11.0 | 0.00 | 0.00 | 0.00 | 46 | 1037.7 |
| 20260503225220 | 75 | 191 | 0.0 | 11.0 | 0.00 | 0.00 | 0.00 | 45 | 1038.2 |
| 20260503224720 | 75 | 161 | 1.0 | 11.0 | 0.00 | 0.00 | 0.00 | 41 | 1037.8 |
| 20260503224220 | 75 | 149 | 0.0 | 11.0 | 0.00 | 0.00 | 0.00 | 44 | 1038.4 |
| 20260503223720 | 76 | 157 | 0.0 | 11.0 | 0.00 | 0.00 | 0.00 | 44 | 1038.5 |
| 20260503223220 | 76 | 164 | 1.0 | 11.0 | 0.00 | 0.00 | 0.00 | 41 | 1038.3 |
| 20260503222720 | 77 | 160 | 0.0 | 11.0 | 0.00 | 0.00 | 0.00 | 44 | 1038.4 |
| 20260503222220 | 77 | 155 | 0.0 | 11.0 | 0.00 | 0.00 | 0.00 | 43 | 1038.4 |
| 20260503221205 | 77 | 211 | 0.0 | 11.0 | 0.00 | 0.00 | 0.00 | 44 | 1038.7 |
| 20260503220705 | 77 | 150 | 0.0 | 11.0 | 0.00 | 0.00 | 0.00 | 43 | 1038.7 |
| 20260503220205 | 77 | 157 | 0.0 | 11.0 | 0.00 | 0.00 | 0.00 | 46 | 1038.9 |
| 20260503215705 | 77 | 161 | 0.0 | 11.0 | 0.00 | 0.00 | 0.00 | 45 | 1039.0 |
| 20260503215205 | 77 | 181 | 0.0 | 11.0 | 0.00 | 0.00 | 0.00 | 46 | 1038.8 |
| 20260503214704 | 77 | 173 | 0.0 | 11.0 | 0.00 | 0.00 | 0.00 | 47 | 1039.0 |
| 20260503214205 | 77 | 172 | 1.0 | 11.0 | 0.00 | 0.00 | 0.00 | 46 | 1039.0 |
| 20260503213704 | 77 | 177 | 0.0 | 11.0 | 0.00 | 0.00 | 0.00 | 46 | 1039.1 |
| 20260503213204 | 77 | 181 | 0.0 | 11.0 | 0.00 | 0.00 | 0.00 | 47 | 1039.2 |
| 20260503212704 | 77 | 174 | 1.0 | 11.0 | 0.00 | 0.00 | 0.00 | 44 | 1039.1 |
| 20260503212203 | 77 | 134 | 0.0 | 11.0 | 0.00 | 0.00 | 0.00 | 47 | 1039.0 |
| 20260503211703 | 76 | 134 | 0.0 | 11.0 | 0.00 | 0.00 | 0.00 | 49 | 1039.4 |
| 20260503211204 | 76 | 132 | 0.0 | 11.0 | 0.00 | 0.00 | 0.00 | 48 | 1039.2 |
| 20260503210148 | 76 | 206 | 0.0 | 11.0 | 0.00 | 0.00 | 0.00 | 47 | 1039.4 |
| 20260503205648 | 76 | 158 | 1.0 | 11.0 | 0.00 | 0.00 | 0.00 | 47 | 1039.7 |
| 20260503205148 | 76 | 226 | 0.0 | 11.0 | 0.00 | 0.00 | 0.00 | 50 | 1039.6 |
| 20260503204131 | 75 | 178 | 0.0 | 11.0 | 0.00 | 0.00 | 0.00 | 50 | 1039.7 |
| 20260503203631 | 75 | 182 | 1.0 | 11.0 | 0.00 | 0.00 | 0.00 | 44 | 1039.7 |
| 20260503203130 | 75 | 204 | 1.0 | 11.0 | 0.00 | 0.00 | 0.00 | 48 | 1039.7 |
| 20260503202631 | 75 | 168 | 0.0 | 11.0 | 0.00 | 0.00 | 0.00 | 50 | 1039.6 |